createdAt,value
2019-05-01T00:02:19.948Z,32.87
2019-05-01T00:05:00.746Z,32.70
2019-05-01T00:07:35.686Z,35.43
2019-05-01T00:10:07.742Z,35.03
2019-05-01T00:12:37.860Z,33.60
2019-05-01T00:15:08.757Z,32.23
2019-05-01T00:17:38.822Z,34.87
2019-05-01T00:20:09.240Z,36.03
2019-05-01T00:22:39.520Z,33.73
2019-05-01T00:25:09.848Z,36.20
2019-05-01T00:27:39.829Z,34.97
2019-05-01T00:30:12.476Z,33.63
2019-05-01T00:32:42.501Z,35.33
2019-05-01T00:35:14.148Z,36.23
2019-05-01T00:37:44.247Z,34.30
2019-05-01T00:40:14.379Z,33.40
2019-05-01T00:42:44.355Z,33.00
2019-05-01T00:45:15.709Z,32.60
2019-05-01T00:47:45.848Z,33.47
2019-05-01T00:50:15.821Z,35.37
2019-05-01T00:52:45.888Z,34.73
2019-05-01T00:55:35.143Z,33.67
2019-05-01T00:58:22.264Z,33.13
2019-05-01T01:01:09.513Z,33.97
2019-05-01T01:03:40.020Z,33.37
2019-05-01T01:06:10.831Z,34.57
2019-05-01T01:08:41.007Z,36.87
2019-05-01T01:11:11.278Z,35.03
2019-05-01T01:13:41.265Z,36.93
2019-05-01T01:16:11.634Z,35.53
2019-05-01T01:18:42.719Z,31.00
2019-05-01T01:21:12.915Z,36.53
2019-05-01T01:23:44.033Z,35.07
2019-05-01T01:26:14.267Z,34.50
2019-05-01T01:28:44.347Z,33.63
2019-05-01T01:31:14.539Z,33.10
2019-05-01T01:33:44.819Z,33.23
2019-05-01T01:36:15.346Z,33.63
2019-05-01T01:38:45.491Z,34.10
2019-05-01T01:41:15.993Z,35.23
2019-05-01T01:44:03.890Z,37.37
2019-05-01T01:46:35.108Z,33.30
2019-05-01T01:49:05.211Z,33.57
2019-05-01T01:51:35.331Z,33.97
2019-05-01T01:54:05.530Z,34.97
2019-05-01T01:56:35.679Z,32.37
2019-05-01T01:59:06.290Z,33.20
2019-05-01T02:02:01.758Z,32.87
2019-05-01T02:05:05.262Z,34.73
2019-05-01T02:07:37.546Z,31.23
2019-05-01T02:10:09.544Z,31.50
2019-05-01T02:12:41.541Z,31.07
2019-05-01T02:15:12.844Z,33.80
2019-05-01T02:17:42.969Z,32.50
2019-05-01T02:20:13.870Z,34.03
2019-05-01T02:22:44.178Z,32.90
2019-05-01T02:25:15.462Z,30.93
2019-05-01T02:28:02.922Z,33.50
2019-05-01T02:30:33.691Z,31.33
2019-05-01T02:33:05.158Z,32.97
2019-05-01T02:35:39.221Z,30.43
2019-05-01T02:38:10.712Z,31.23
2019-05-01T02:40:56.601Z,31.10
2019-05-01T02:43:29.490Z,31.00
2019-05-01T02:46:02.407Z,28.70
2019-05-01T02:48:36.112Z,29.23
2019-05-01T02:51:07.285Z,30.50
2019-05-01T02:53:40.387Z,29.37
2019-05-01T02:56:30.031Z,32.03
2019-05-01T02:59:02.311Z,30.97
2019-05-01T03:01:46.300Z,28.50
2019-05-01T03:04:09.592Z,30.93
2019-05-01T03:06:40.713Z,30.50
2019-05-01T03:09:10.964Z,31.13
2019-05-01T03:11:42.396Z,29.97
2019-05-01T03:14:17.858Z,31.70
2019-05-01T03:16:49.483Z,28.90
2019-05-01T03:19:43.153Z,28.63
2019-05-01T03:22:29.860Z,30.47
2019-05-01T03:25:00.789Z,31.17
2019-05-01T03:27:32.044Z,30.90
2019-05-01T03:30:02.259Z,31.47
2019-05-01T03:32:32.407Z,30.53
2019-05-01T03:35:02.889Z,29.73
2019-05-01T03:37:33.191Z,28.97
2019-05-01T03:40:03.979Z,29.63
2019-05-01T03:42:35.033Z,30.23
2019-05-01T03:45:05.415Z,28.97
2019-05-01T03:47:35.737Z,29.90
2019-05-01T03:50:06.288Z,28.80
2019-05-01T03:52:36.610Z,30.17
2019-05-01T03:55:06.876Z,29.17
2019-05-01T03:57:37.232Z,28.30
2019-05-01T04:00:09.119Z,30.07
2019-05-01T04:02:48.234Z,28.70
2019-05-01T04:05:18.676Z,29.47
2019-05-01T04:07:49.035Z,28.57
2019-05-01T04:10:19.323Z,29.87
2019-05-01T04:12:49.513Z,29.00
2019-05-01T04:15:19.718Z,28.80
2019-05-01T04:17:53.879Z,27.57
2019-05-01T04:20:24.075Z,29.10
2019-05-01T04:22:54.504Z,28.20
2019-05-01T04:25:25.173Z,29.33
2019-05-01T04:27:58.786Z,27.90
2019-05-01T04:31:03.373Z,29.63
2019-05-01T04:33:34.635Z,28.07
2019-05-01T04:36:10.432Z,29.00
2019-05-01T04:38:40.709Z,28.17
2019-05-01T04:41:13.611Z,27.87
2019-05-01T04:43:43.740Z,27.63
2019-05-01T04:46:16.910Z,28.07
2019-05-01T04:48:47.145Z,28.03
2019-05-01T04:51:17.447Z,27.73
2019-05-01T04:53:47.809Z,28.47
2019-05-01T04:56:18.144Z,26.20
2019-05-01T04:58:48.682Z,26.73
2019-05-01T05:01:19.073Z,26.60
2019-05-01T05:03:49.353Z,27.90
2019-05-01T05:06:22.263Z,27.70
2019-05-01T05:08:52.900Z,28.50
2019-05-01T05:11:26.639Z,27.37
2019-05-01T05:14:10.663Z,28.40
2019-05-01T05:17:11.855Z,25.10
2019-05-01T05:19:42.080Z,26.23
2019-05-01T05:22:12.316Z,26.13
2019-05-01T05:24:42.824Z,28.10
2019-05-01T05:27:14.263Z,25.10
2019-05-01T05:29:45.987Z,28.00
2019-05-01T05:32:18.174Z,24.67
2019-05-01T05:34:51.037Z,27.53
2019-05-01T05:37:27.076Z,27.10
2019-05-01T05:39:59.968Z,26.17
2019-05-01T05:42:30.445Z,25.70
2019-05-01T05:45:05.559Z,25.73
2019-05-01T05:47:36.142Z,25.73
2019-05-01T05:50:08.362Z,25.73
2019-05-01T05:53:03.080Z,24.57
2019-05-01T05:55:39.397Z,24.60
2019-05-01T05:58:31.061Z,24.40
2019-05-01T06:01:22.771Z,22.47
2019-05-01T06:04:33.155Z,23.83
2019-05-01T06:07:22.056Z,23.37
2019-05-01T06:10:22.782Z,23.60
2019-05-01T06:13:03.963Z,25.07
2019-05-01T06:15:56.158Z,22.30
2019-05-01T06:18:39.386Z,22.63
2019-05-01T06:21:26.074Z,23.73
2019-05-01T06:24:13.143Z,22.90
2019-05-01T06:26:43.991Z,23.10
2019-05-01T06:29:14.617Z,21.10
2019-05-01T06:31:44.792Z,22.20
2019-05-01T06:34:15.080Z,22.30
2019-05-01T06:36:49.748Z,23.40
2019-05-01T06:39:22.482Z,21.63
2019-05-01T06:41:53.630Z,22.73
2019-05-01T06:44:39.172Z,22.93
2019-05-01T06:47:24.145Z,23.00
2019-05-01T06:50:31.991Z,22.60
2019-05-01T06:53:04.747Z,20.90
2019-05-01T06:55:37.232Z,22.37
2019-05-01T06:58:14.730Z,21.00
2019-05-01T07:00:44.297Z,21.67
2019-05-01T07:03:15.141Z,20.93
2019-05-01T07:05:49.139Z,20.93
2019-05-01T07:08:24.436Z,21.83
2019-05-01T07:10:49.939Z,20.67
2019-05-01T07:13:24.525Z,19.40
2019-05-01T07:15:58.389Z,20.40
2019-05-01T07:18:29.207Z,19.70
2019-05-01T07:21:00.229Z,20.60
2019-05-01T07:23:30.402Z,20.27
2019-05-01T07:26:01.341Z,19.63
2019-05-01T07:28:36.201Z,20.57
2019-05-01T07:31:10.891Z,19.20
2019-05-01T07:33:41.757Z,20.30
2019-05-01T07:36:15.139Z,21.60
2019-05-01T07:38:44.621Z,19.47
2019-05-01T07:41:14.843Z,18.37
2019-05-01T07:44:08.393Z,18.90
2019-05-01T07:46:58.499Z,17.27
2019-05-01T07:49:54.764Z,16.30
2019-05-01T07:52:26.148Z,16.60
2019-05-01T07:54:58.452Z,16.30
2019-05-01T07:57:29.067Z,17.53
2019-05-01T08:00:03.573Z,18.00
2019-05-01T08:02:32.971Z,16.67
2019-05-01T08:05:05.045Z,16.33
2019-05-01T08:07:36.796Z,15.70
2019-05-01T08:10:09.355Z,18.17
2019-05-01T08:12:40.144Z,15.33
2019-05-01T08:15:10.731Z,15.17
2019-05-01T08:17:42.549Z,15.47
2019-05-01T08:20:29.677Z,14.20
2019-05-01T08:23:00.349Z,13.80
2019-05-01T08:25:33.267Z,13.80
2019-05-01T08:28:10.405Z,14.03
2019-05-01T08:30:55.654Z,15.90
2019-05-01T08:33:49.809Z,13.70
2019-05-01T08:36:20.131Z,14.83
2019-05-01T08:38:50.471Z,13.07
2019-05-01T08:41:21.886Z,11.70
2019-05-01T08:43:53.930Z,11.37
2019-05-01T08:46:46.788Z,11.13
2019-05-01T08:49:23.888Z,10.90
2019-05-01T08:51:54.098Z,5.23
2019-05-01T08:54:24.186Z,4.60
2019-05-01T08:56:58.109Z,3.93
2019-05-01T08:59:27.275Z,4.60
2019-05-01T09:02:09.010Z,3.60
2019-05-01T09:04:32.453Z,5.50
2019-05-01T09:07:03.020Z,3.70
2019-05-01T09:09:33.776Z,3.60
2019-05-01T09:12:06.778Z,3.50
2019-05-01T09:14:37.778Z,3.70
2019-05-01T09:17:08.611Z,3.00
2019-05-01T09:19:39.257Z,3.00
2019-05-01T09:22:09.626Z,3.63
2019-05-01T09:24:41.184Z,4.10
2019-05-01T09:27:39.227Z,4.10
2019-05-01T09:30:21.761Z,3.73
2019-05-01T09:32:54.117Z,4.13
2019-05-01T09:35:25.482Z,4.67
2019-05-01T09:37:55.898Z,5.10
2019-05-01T09:40:30.490Z,5.80
2019-05-01T09:43:03.900Z,5.37
2019-05-01T09:45:35.114Z,5.13
2019-05-01T09:48:06.118Z,5.70
2019-05-01T09:50:38.695Z,16.50
2019-05-01T09:53:16.689Z,6.60
2019-05-01T09:56:09.379Z,8.97
2019-05-01T09:58:41.088Z,7.40
2019-05-01T10:01:11.877Z,8.43
2019-05-01T10:03:44.774Z,7.10
2019-05-01T10:06:17.149Z,7.80
2019-05-01T10:08:47.046Z,7.47
2019-05-01T10:11:21.435Z,7.40
2019-05-01T10:13:53.781Z,6.33
2019-05-01T10:16:25.374Z,7.37
2019-05-01T10:18:55.515Z,6.47
2019-05-01T10:21:27.275Z,8.90
2019-05-01T10:23:57.427Z,10.30
2019-05-01T10:26:30.164Z,8.00
2019-05-01T10:29:27.799Z,6.90
2019-05-01T10:32:26.211Z,7.40
2019-05-01T10:35:09.005Z,9.00
2019-05-01T10:37:40.737Z,7.33
2019-05-01T10:40:14.385Z,7.43
2019-05-01T10:42:44.692Z,7.33
2019-05-01T10:45:14.981Z,7.80
2019-05-01T10:47:45.177Z,7.87
2019-05-01T10:50:15.545Z,9.73
2019-05-01T10:52:46.079Z,10.37
2019-05-01T10:55:16.404Z,8.40
2019-05-01T10:57:46.576Z,8.40
2019-05-01T11:00:17.282Z,9.40
2019-05-01T11:02:47.969Z,11.10
2019-05-01T11:05:20.417Z,10.70
2019-05-01T11:07:50.842Z,12.20
2019-05-01T11:10:21.321Z,9.10
2019-05-01T11:12:51.572Z,9.47
2019-05-01T11:15:22.989Z,9.30
2019-05-01T11:17:53.202Z,9.60
2019-05-01T11:20:23.242Z,11.43
2019-05-01T11:22:53.949Z,8.20
2019-05-01T11:25:24.430Z,9.60
2019-05-01T11:27:57.062Z,8.43
2019-05-01T11:30:29.986Z,9.23
2019-05-01T11:33:26.811Z,9.90
2019-05-01T11:38:58.674Z,9.73
2019-05-01T11:41:52.247Z,9.13
2019-05-01T11:44:22.321Z,9.73
2019-05-01T11:46:53.886Z,9.47
2019-05-01T11:49:25.069Z,9.47
2019-05-01T11:51:55.720Z,8.57
2019-05-01T11:54:25.858Z,8.97
2019-05-01T11:56:55.946Z,9.40
2019-05-01T11:59:26.001Z,9.07
2019-05-01T12:01:58.880Z,8.90
2019-05-01T12:04:29.367Z,9.40
2019-05-01T12:07:02.841Z,9.70
2019-05-01T12:09:33.747Z,10.63
2019-05-01T12:12:10.731Z,9.00
2019-05-01T12:14:41.877Z,8.87
2019-05-01T12:17:35.557Z,10.77
2019-05-01T12:20:10.234Z,16.23
2019-05-01T12:22:39.247Z,10.37
2019-05-01T12:25:09.411Z,9.63
2019-05-01T12:27:39.785Z,8.90
2019-05-01T12:30:11.106Z,8.83
2019-05-01T12:32:42.190Z,9.47
2019-05-01T12:35:12.590Z,9.60
2019-05-01T12:37:43.350Z,8.60
2019-05-01T12:40:22.244Z,10.23
2019-05-01T12:42:53.150Z,8.97
2019-05-01T12:45:24.046Z,12.60
2019-05-01T12:47:58.229Z,8.07
2019-05-01T12:50:29.584Z,10.10
2019-05-01T12:53:05.809Z,8.67
2019-05-01T12:55:53.888Z,8.10
2019-05-01T12:58:24.381Z,8.70
2019-05-01T13:00:55.249Z,8.17
2019-05-01T13:03:25.476Z,8.13
2019-05-01T13:05:57.115Z,7.77
2019-05-01T13:08:27.306Z,9.43
2019-05-01T13:11:00.247Z,11.37
2019-05-01T13:13:32.077Z,7.60
2019-05-01T13:16:03.297Z,8.47
2019-05-01T13:18:33.746Z,8.10
2019-05-01T13:21:04.222Z,7.23
2019-05-01T13:23:34.618Z,6.87
2019-05-01T13:26:24.068Z,7.50
2019-05-01T13:28:59.139Z,9.03
2019-05-01T13:31:37.944Z,8.37
2019-05-01T13:34:08.583Z,8.40
2019-05-01T13:36:39.279Z,9.10
2019-05-01T13:39:13.013Z,9.73
2019-05-01T13:41:43.480Z,9.00
2019-05-01T13:44:15.314Z,8.23
2019-05-01T13:46:45.614Z,9.73
2019-05-01T13:49:15.922Z,10.33
2019-05-01T13:51:46.064Z,9.37
2019-05-01T13:54:16.535Z,9.10
2019-05-01T13:56:46.837Z,8.97
2019-05-01T13:59:17.350Z,9.10
2019-05-01T14:01:47.661Z,9.07
2019-05-01T14:04:17.907Z,9.80
2019-05-01T14:06:48.116Z,8.60
2019-05-01T14:09:25.116Z,8.27
2019-05-01T14:11:55.103Z,9.17
2019-05-01T14:14:25.472Z,9.10
2019-05-01T14:16:55.621Z,9.27
2019-05-01T14:19:25.878Z,8.70
2019-05-01T14:22:33.317Z,8.43
2019-05-01T14:25:04.875Z,9.87
2019-05-01T14:27:34.931Z,9.87
2019-05-01T14:30:12.428Z,10.70
2019-05-01T14:32:43.789Z,10.53
2019-05-01T14:35:15.945Z,10.00
2019-05-01T14:37:46.638Z,10.10
2019-05-01T14:43:21.630Z,9.67
2019-05-01T14:45:55.969Z,9.27
2019-05-01T14:48:27.148Z,9.73
2019-05-01T14:50:57.453Z,9.37
2019-05-01T14:53:28.412Z,10.13
2019-05-01T14:55:59.692Z,9.77
2019-05-01T14:58:30.350Z,9.87
2019-05-01T15:01:01.508Z,10.00
2019-05-01T15:03:31.857Z,10.50
2019-05-01T15:06:04.756Z,10.20
2019-05-01T15:08:35.845Z,8.80
2019-05-01T15:11:10.766Z,9.23
2019-05-01T15:14:07.898Z,10.57
2019-05-01T15:17:03.204Z,10.47
2019-05-01T15:19:35.281Z,10.80
2019-05-01T15:22:05.792Z,11.03
2019-05-01T15:24:35.808Z,13.00
2019-05-01T15:27:06.737Z,11.57
2019-05-01T15:29:36.988Z,11.30
2019-05-01T15:32:07.298Z,10.10
2019-05-01T15:34:37.670Z,11.13
2019-05-01T15:37:08.008Z,11.63
2019-05-01T15:39:50.196Z,9.83
2019-05-01T15:42:35.091Z,14.03
2019-05-01T15:45:05.593Z,12.00
2019-05-01T15:47:36.420Z,10.70
2019-05-01T15:50:07.807Z,10.90
2019-05-01T15:52:38.290Z,10.93
2019-05-01T15:55:09.092Z,10.33
2019-05-01T15:57:39.491Z,12.47
2019-05-01T16:00:13.299Z,11.90
2019-05-01T16:02:43.657Z,11.03
2019-05-01T16:05:11.638Z,11.40
2019-05-01T16:07:42.448Z,10.33
2019-05-01T16:10:14.805Z,10.10
2019-05-01T16:12:50.914Z,9.37
2019-05-01T16:15:30.889Z,10.30
2019-05-01T16:18:01.426Z,10.20
2019-05-01T16:20:31.455Z,9.30
2019-05-01T16:23:01.663Z,9.57
2019-05-01T16:25:32.222Z,10.30
2019-05-01T16:28:07.086Z,10.67
2019-05-01T16:30:38.543Z,12.10
2019-05-01T16:33:08.838Z,9.73
2019-05-01T16:35:39.420Z,10.60
2019-05-01T16:38:23.180Z,11.10
2019-05-01T16:41:07.357Z,9.37
2019-05-01T16:43:37.406Z,10.67
2019-05-01T16:46:08.389Z,9.60
2019-05-01T16:48:39.803Z,15.93
2019-05-01T16:51:10.038Z,11.40
2019-05-01T16:53:40.101Z,10.30
2019-05-01T16:56:10.423Z,11.37
2019-05-01T16:58:40.631Z,10.90
2019-05-01T17:01:15.510Z,10.27
2019-05-01T17:04:03.488Z,10.77
2019-05-01T17:06:51.059Z,11.10
2019-05-01T17:09:55.493Z,11.70
2019-05-01T17:12:30.547Z,9.57
2019-05-01T17:15:01.099Z,10.17
2019-05-01T17:17:32.478Z,10.70
2019-05-01T17:20:02.799Z,10.53
2019-05-01T17:22:32.929Z,10.17
2019-05-01T17:25:03.526Z,11.00
2019-05-01T17:27:33.627Z,10.63
2019-05-01T17:30:09.098Z,10.93
2019-05-01T17:32:44.238Z,11.80
2019-05-01T17:35:12.591Z,10.30
2019-05-01T17:37:42.915Z,11.33
2019-05-01T17:40:13.375Z,11.50
2019-05-01T17:42:43.699Z,11.43
2019-05-01T17:45:14.301Z,11.03
2019-05-01T17:47:44.375Z,11.33
2019-05-01T17:50:21.029Z,11.90
2019-05-01T17:52:52.326Z,11.40
2019-05-01T17:55:27.951Z,12.30
2019-05-01T17:58:01.309Z,12.27
2019-05-01T18:00:50.088Z,11.33
2019-05-01T18:03:33.206Z,12.17
2019-05-01T18:06:26.717Z,13.00
2019-05-01T18:09:03.236Z,11.87
2019-05-01T18:11:31.905Z,13.77
2019-05-01T18:14:05.415Z,12.63
2019-05-01T18:16:35.260Z,12.27
2019-05-01T18:19:09.928Z,11.93
2019-05-01T18:21:46.716Z,13.77
2019-05-01T18:24:34.884Z,14.60
2019-05-01T18:27:37.130Z,13.73
2019-05-01T18:30:15.777Z,13.97
2019-05-01T18:32:53.262Z,15.30
2019-05-01T18:35:26.917Z,15.00
2019-05-01T18:38:17.051Z,14.80
2019-05-01T18:40:50.278Z,14.33
2019-05-01T18:43:22.464Z,14.40
2019-05-01T18:45:58.797Z,12.87
2019-05-01T18:48:30.115Z,14.63
2019-05-01T18:51:00.831Z,15.30
2019-05-01T18:53:31.110Z,15.60
2019-05-01T18:56:05.588Z,16.00
2019-05-01T18:58:34.495Z,15.77
2019-05-01T19:01:11.830Z,15.73
2019-05-01T19:03:44.050Z,15.53
2019-05-01T19:06:15.819Z,16.50
2019-05-01T19:08:46.510Z,17.23
2019-05-01T19:11:18.564Z,16.60
2019-05-01T19:13:49.410Z,16.20
2019-05-01T19:16:19.696Z,16.80
2019-05-01T19:18:49.826Z,16.20
2019-05-01T19:21:24.106Z,16.83
2019-05-01T19:24:00.621Z,15.50
2019-05-01T19:26:30.281Z,16.70
2019-05-01T19:29:00.876Z,17.20
2019-05-01T19:31:31.738Z,16.33
2019-05-01T19:36:54.300Z,17.63
2019-05-01T19:39:25.832Z,16.43
2019-05-01T19:41:58.258Z,17.20
2019-05-01T19:44:29.219Z,16.43
2019-05-01T19:47:01.124Z,17.10
2019-05-01T19:49:33.180Z,16.47
2019-05-01T19:52:08.237Z,16.23
2019-05-01T19:54:38.604Z,17.73
2019-05-01T19:57:09.391Z,18.00
2019-05-01T19:59:39.879Z,16.80
2019-05-01T20:02:11.481Z,18.07
2019-05-01T20:04:45.285Z,18.50
2019-05-01T20:07:15.683Z,18.77
2019-05-01T20:09:56.684Z,19.83
2019-05-01T20:12:20.855Z,20.00
2019-05-01T20:14:55.209Z,18.30
2019-05-01T20:17:29.707Z,18.70
2019-05-01T20:19:59.802Z,21.10
2019-05-01T20:22:30.001Z,18.77
2019-05-01T20:25:00.154Z,20.50
2019-05-01T20:27:31.571Z,18.60
2019-05-01T20:30:03.390Z,19.03
2019-05-01T20:32:36.682Z,20.03
2019-05-01T20:35:09.214Z,19.87
2019-05-01T20:37:39.511Z,20.07
2019-05-01T20:40:11.604Z,19.87
2019-05-01T20:42:42.411Z,20.57
2019-05-01T20:45:18.413Z,21.20
2019-05-01T20:47:48.166Z,20.57
2019-05-01T20:50:18.784Z,20.90
2019-05-01T20:52:48.932Z,20.20
2019-05-01T20:55:19.153Z,18.60
2019-05-01T20:57:49.768Z,20.27
2019-05-01T21:00:22.785Z,19.50
2019-05-01T21:02:53.681Z,21.07
2019-05-01T21:05:32.900Z,19.77
2019-05-01T21:08:24.772Z,20.20
2019-05-01T21:11:00.879Z,21.63
2019-05-01T21:13:31.261Z,21.93
2019-05-01T21:16:03.827Z,21.33
2019-05-01T21:18:34.841Z,21.67
2019-05-01T21:21:05.349Z,20.73
2019-05-01T21:23:35.733Z,23.20
2019-05-01T21:26:06.448Z,24.43
2019-05-01T21:28:36.772Z,23.33
2019-05-01T21:31:07.518Z,24.13
2019-05-01T21:33:40.800Z,22.43
2019-05-01T21:36:14.580Z,22.40
2019-05-01T21:38:45.259Z,23.27
2019-05-01T21:41:18.406Z,23.43
2019-05-01T21:43:52.614Z,22.77
2019-05-01T21:46:25.983Z,23.37
2019-05-01T21:48:57.349Z,22.53
2019-05-01T21:51:30.212Z,22.53
2019-05-01T21:54:03.262Z,25.10
2019-05-01T21:56:36.868Z,21.47
2019-05-01T21:59:09.788Z,24.70
2019-05-01T22:01:41.463Z,25.60
2019-05-01T22:04:14.490Z,24.40
2019-05-01T22:06:46.650Z,22.93
2019-05-01T22:09:24.046Z,25.70
2019-05-01T22:11:56.208Z,22.40
2019-05-01T22:14:45.842Z,24.27
2019-05-01T22:17:32.089Z,24.97
2019-05-01T22:20:03.742Z,23.10
2019-05-01T22:22:46.809Z,24.40
2019-05-01T22:25:30.143Z,24.03
2019-05-01T22:28:08.271Z,24.37
2019-05-01T22:30:46.416Z,24.77
2019-05-01T22:33:16.310Z,24.03
2019-05-01T22:35:49.619Z,24.07
2019-05-01T22:38:20.599Z,23.67
2019-05-01T22:41:10.654Z,24.37
2019-05-01T22:43:41.565Z,24.23
2019-05-01T22:46:20.232Z,26.97
2019-05-01T22:48:52.249Z,24.93
2019-05-01T22:51:25.043Z,24.80
2019-05-01T22:53:56.124Z,24.90
2019-05-01T22:56:27.421Z,24.77
2019-05-01T22:58:58.623Z,24.73
2019-05-01T23:01:29.558Z,24.60
2019-05-01T23:04:12.152Z,24.03
2019-05-01T23:06:42.023Z,26.43
2019-05-01T23:09:15.364Z,25.70
2019-05-01T23:11:47.530Z,24.93
2019-05-01T23:14:18.944Z,24.50
2019-05-01T23:17:08.419Z,24.97
2019-05-01T23:19:39.644Z,23.57
2019-05-01T23:22:10.070Z,24.53
2019-05-01T23:24:41.118Z,24.20
2019-05-01T23:27:12.441Z,25.97
2019-05-01T23:29:43.040Z,23.80
2019-05-01T23:32:13.716Z,24.17
2019-05-01T23:34:44.644Z,24.60
2019-05-01T23:37:15.639Z,23.90
2019-05-01T23:39:47.304Z,23.13
2019-05-01T23:42:17.814Z,23.03
2019-05-01T23:44:49.523Z,24.77
2019-05-01T23:47:20.024Z,23.80
2019-05-01T23:49:52.525Z,24.70
2019-05-01T23:52:22.779Z,23.50
2019-05-01T23:54:53.357Z,24.13
2019-05-01T23:57:23.715Z,24.40
2019-05-01T23:59:54.154Z,24.23
